sensor_id;sensor_type;location;lat;lon;timestamp;P1;durP1;ratioP1;P2;durP2;ratioP2
2618;SDS011;1319;52.346;13.096;2023-07-13T00:01:54;5.60;;;4.13;;
2618;SDS011;1319;52.346;13.096;2023-07-13T00:04:20;8.13;;;4.63;;
2618;SDS011;1319;52.346;13.096;2023-07-13T00:06:46;15.80;;;5.20;;
2618;SDS011;1319;52.346;13.096;2023-07-13T00:09:15;15.43;;;5.40;;
2618;SDS011;1319;52.346;13.096;2023-07-13T00:11:41;12.07;;;4.53;;
2618;SDS011;1319;52.346;13.096;2023-07-13T00:14:07;19.13;;;5.53;;
2618;SDS011;1319;52.346;13.096;2023-07-13T00:16:33;13.10;;;5.77;;
2618;SDS011;1319;52.346;13.096;2023-07-13T00:18:58;6.47;;;4.10;;
2618;SDS011;1319;52.346;13.096;2023-07-13T00:21:25;6.50;;;4.90;;
2618;SDS011;1319;52.346;13.096;2023-07-13T00:23:50;6.37;;;4.17;;
2618;SDS011;1319;52.346;13.096;2023-07-13T00:26:15;9.77;;;4.20;;
2618;SDS011;1319;52.346;13.096;2023-07-13T00:28:42;6.63;;;4.40;;
2618;SDS011;1319;52.346;13.096;2023-07-13T00:31:08;10.80;;;4.40;;
2618;SDS011;1319;52.346;13.096;2023-07-13T00:33:33;5.53;;;3.97;;
2618;SDS011;1319;52.346;13.096;2023-07-13T00:35:59;4.37;;;3.90;;
2618;SDS011;1319;52.346;13.096;2023-07-13T00:38:24;8.23;;;4.27;;
2618;SDS011;1319;52.346;13.096;2023-07-13T00:40:49;8.13;;;4.53;;
2618;SDS011;1319;52.346;13.096;2023-07-13T00:43:16;7.37;;;4.43;;
2618;SDS011;1319;52.346;13.096;2023-07-13T00:48:29;6.13;;;4.73;;
2618;SDS011;1319;52.346;13.096;2023-07-13T00:50:56;7.17;;;4.77;;
2618;SDS011;1319;52.346;13.096;2023-07-13T00:53:22;9.00;;;4.63;;
2618;SDS011;1319;52.346;13.096;2023-07-13T00:55:49;6.63;;;4.40;;
2618;SDS011;1319;52.346;13.096;2023-07-13T00:58:15;8.13;;;4.50;;
2618;SDS011;1319;52.346;13.096;2023-07-13T01:00:40;5.20;;;4.50;;
2618;SDS011;1319;52.346;13.096;2023-07-13T01:03:06;7.07;;;4.70;;
2618;SDS011;1319;52.346;13.096;2023-07-13T01:05:32;6.80;;;4.83;;
2618;SDS011;1319;52.346;13.096;2023-07-13T01:07:57;6.70;;;5.10;;
2618;SDS011;1319;52.346;13.096;2023-07-13T01:10:24;7.33;;;4.53;;
2618;SDS011;1319;52.346;13.096;2023-07-13T01:12:49;8.23;;;5.07;;
2618;SDS011;1319;52.346;13.096;2023-07-13T01:17:58;5.23;;;4.43;;
2618;SDS011;1319;52.346;13.096;2023-07-13T01:20:23;6.10;;;4.20;;
2618;SDS011;1319;52.346;13.096;2023-07-13T01:22:49;9.03;;;4.80;;
2618;SDS011;1319;52.346;13.096;2023-07-13T01:25:15;11.50;;;4.93;;
2618;SDS011;1319;52.346;13.096;2023-07-13T01:27:41;5.63;;;4.80;;
2618;SDS011;1319;52.346;13.096;2023-07-13T01:30:06;8.03;;;4.90;;
2618;SDS011;1319;52.346;13.096;2023-07-13T01:32:31;9.90;;;5.70;;
2618;SDS011;1319;52.346;13.096;2023-07-13T01:34:57;6.80;;;5.20;;
2618;SDS011;1319;52.346;13.096;2023-07-13T01:37:23;10.40;;;5.43;;
2618;SDS011;1319;52.346;13.096;2023-07-13T01:39:48;8.97;;;5.57;;
2618;SDS011;1319;52.346;13.096;2023-07-13T01:42:14;8.80;;;5.20;;
2618;SDS011;1319;52.346;13.096;2023-07-13T01:44:39;10.23;;;4.97;;
2618;SDS011;1319;52.346;13.096;2023-07-13T01:47:04;6.90;;;4.90;;
2618;SDS011;1319;52.346;13.096;2023-07-13T01:49:30;8.30;;;5.20;;
2618;SDS011;1319;52.346;13.096;2023-07-13T01:51:55;7.80;;;4.80;;
2618;SDS011;1319;52.346;13.096;2023-07-13T01:54:20;9.60;;;5.50;;
2618;SDS011;1319;52.346;13.096;2023-07-13T01:56:45;5.37;;;4.87;;
2618;SDS011;1319;52.346;13.096;2023-07-13T01:59:10;6.80;;;5.20;;
2618;SDS011;1319;52.346;13.096;2023-07-13T02:01:36;8.40;;;4.97;;
2618;SDS011;1319;52.346;13.096;2023-07-13T02:04:01;9.67;;;5.40;;
2618;SDS011;1319;52.346;13.096;2023-07-13T02:06:27;7.07;;;5.27;;
2618;SDS011;1319;52.346;13.096;2023-07-13T02:08:52;7.83;;;5.57;;
2618;SDS011;1319;52.346;13.096;2023-07-13T02:11:17;9.93;;;5.33;;
2618;SDS011;1319;52.346;13.096;2023-07-13T02:13:42;6.47;;;5.87;;
2618;SDS011;1319;52.346;13.096;2023-07-13T02:16:08;7.77;;;5.63;;
2618;SDS011;1319;52.346;13.096;2023-07-13T02:18:33;7.67;;;5.63;;
2618;SDS011;1319;52.346;13.096;2023-07-13T02:20:58;6.70;;;5.57;;
2618;SDS011;1319;52.346;13.096;2023-07-13T02:23:23;11.10;;;5.50;;
2618;SDS011;1319;52.346;13.096;2023-07-13T02:25:49;8.70;;;5.47;;
2618;SDS011;1319;52.346;13.096;2023-07-13T02:28:14;6.30;;;5.33;;
2618;SDS011;1319;52.346;13.096;2023-07-13T02:30:39;7.17;;;5.63;;
2618;SDS011;1319;52.346;13.096;2023-07-13T02:33:04;9.27;;;5.53;;
2618;SDS011;1319;52.346;13.096;2023-07-13T02:35:30;8.67;;;5.77;;
2618;SDS011;1319;52.346;13.096;2023-07-13T02:37:55;6.67;;;5.57;;
2618;SDS011;1319;52.346;13.096;2023-07-13T02:40:20;8.27;;;5.50;;
2618;SDS011;1319;52.346;13.096;2023-07-13T02:42:45;9.40;;;5.60;;
2618;SDS011;1319;52.346;13.096;2023-07-13T02:45:11;57.80;;;18.60;;
2618;SDS011;1319;52.346;13.096;2023-07-13T02:47:39;8.77;;;5.87;;
2618;SDS011;1319;52.346;13.096;2023-07-13T02:50:05;10.23;;;5.70;;
2618;SDS011;1319;52.346;13.096;2023-07-13T02:52:30;7.43;;;6.10;;
2618;SDS011;1319;52.346;13.096;2023-07-13T02:54:56;6.63;;;5.93;;
2618;SDS011;1319;52.346;13.096;2023-07-13T02:57:21;49.80;;;18.53;;
2618;SDS011;1319;52.346;13.096;2023-07-13T02:59:46;9.27;;;6.17;;
2618;SDS011;1319;52.346;13.096;2023-07-13T03:02:11;9.30;;;6.33;;
2618;SDS011;1319;52.346;13.096;2023-07-13T03:04:36;10.33;;;6.90;;
2618;SDS011;1319;52.346;13.096;2023-07-13T03:07:02;40.83;;;20.70;;
2618;SDS011;1319;52.346;13.096;2023-07-13T03:09:27;6.20;;;5.60;;
2618;SDS011;1319;52.346;13.096;2023-07-13T03:11:53;9.17;;;5.80;;
2618;SDS011;1319;52.346;13.096;2023-07-13T03:14:19;8.43;;;6.73;;
2618;SDS011;1319;52.346;13.096;2023-07-13T03:16:45;10.83;;;6.40;;
2618;SDS011;1319;52.346;13.096;2023-07-13T03:19:10;8.40;;;6.27;;
2618;SDS011;1319;52.346;13.096;2023-07-13T03:21:35;8.23;;;6.60;;
2618;SDS011;1319;52.346;13.096;2023-07-13T03:24:00;9.17;;;5.83;;
2618;SDS011;1319;52.346;13.096;2023-07-13T03:26:25;8.50;;;6.30;;
2618;SDS011;1319;52.346;13.096;2023-07-13T03:28:51;12.60;;;6.87;;
2618;SDS011;1319;52.346;13.096;2023-07-13T03:31:18;8.80;;;6.50;;
2618;SDS011;1319;52.346;13.096;2023-07-13T03:33:43;8.30;;;6.23;;
2618;SDS011;1319;52.346;13.096;2023-07-13T03:36:12;10.23;;;6.60;;
2618;SDS011;1319;52.346;13.096;2023-07-13T03:38:38;7.83;;;6.27;;
2618;SDS011;1319;52.346;13.096;2023-07-13T03:41:03;17.60;;;8.73;;
2618;SDS011;1319;52.346;13.096;2023-07-13T03:43:28;14.10;;;6.23;;
2618;SDS011;1319;52.346;13.096;2023-07-13T03:45:53;7.47;;;6.17;;
2618;SDS011;1319;52.346;13.096;2023-07-13T03:48:19;11.07;;;6.27;;
2618;SDS011;1319;52.346;13.096;2023-07-13T03:50:44;7.73;;;6.63;;
2618;SDS011;1319;52.346;13.096;2023-07-13T03:53:09;6.53;;;5.77;;
2618;SDS011;1319;52.346;13.096;2023-07-13T03:55:34;9.63;;;6.23;;
2618;SDS011;1319;52.346;13.096;2023-07-13T03:58:01;7.50;;;5.70;;
2618;SDS011;1319;52.346;13.096;2023-07-13T04:00:45;10.47;;;5.67;;
2618;SDS011;1319;52.346;13.096;2023-07-13T04:03:10;5.87;;;5.30;;
2618;SDS011;1319;52.346;13.096;2023-07-13T04:05:35;8.80;;;5.33;;
2618;SDS011;1319;52.346;13.096;2023-07-13T04:08:01;8.87;;;5.60;;
2618;SDS011;1319;52.346;13.096;2023-07-13T04:10:26;21.27;;;9.93;;
2618;SDS011;1319;52.346;13.096;2023-07-13T04:12:51;6.70;;;6.00;;
2618;SDS011;1319;52.346;13.096;2023-07-13T04:15:17;7.67;;;6.37;;
2618;SDS011;1319;52.346;13.096;2023-07-13T04:17:42;8.33;;;6.13;;
2618;SDS011;1319;52.346;13.096;2023-07-13T04:20:07;18.63;;;8.67;;
2618;SDS011;1319;52.346;13.096;2023-07-13T04:22:33;8.17;;;6.47;;
2618;SDS011;1319;52.346;13.096;2023-07-13T04:24:58;9.83;;;6.40;;
2618;SDS011;1319;52.346;13.096;2023-07-13T04:27:23;6.87;;;6.20;;
2618;SDS011;1319;52.346;13.096;2023-07-13T04:29:48;6.83;;;6.13;;
2618;SDS011;1319;52.346;13.096;2023-07-13T04:32:13;8.90;;;6.37;;
2618;SDS011;1319;52.346;13.096;2023-07-13T04:34:39;7.47;;;5.73;;
2618;SDS011;1319;52.346;13.096;2023-07-13T04:37:04;8.47;;;6.37;;
2618;SDS011;1319;52.346;13.096;2023-07-13T04:39:29;6.33;;;5.57;;
2618;SDS011;1319;52.346;13.096;2023-07-13T04:41:54;7.57;;;5.57;;
2618;SDS011;1319;52.346;13.096;2023-07-13T04:44:20;7.17;;;5.20;;
2618;SDS011;1319;52.346;13.096;2023-07-13T04:46:46;7.10;;;5.60;;
2618;SDS011;1319;52.346;13.096;2023-07-13T04:49:11;6.23;;;5.63;;
2618;SDS011;1319;52.346;13.096;2023-07-13T04:51:36;9.23;;;5.67;;
2618;SDS011;1319;52.346;13.096;2023-07-13T04:54:01;8.40;;;5.60;;
2618;SDS011;1319;52.346;13.096;2023-07-13T04:56:26;7.20;;;5.67;;
2618;SDS011;1319;52.346;13.096;2023-07-13T04:58:52;6.27;;;5.07;;
2618;SDS011;1319;52.346;13.096;2023-07-13T05:01:17;9.13;;;5.30;;
2618;SDS011;1319;52.346;13.096;2023-07-13T05:03:42;7.47;;;4.83;;
2618;SDS011;1319;52.346;13.096;2023-07-13T05:06:08;6.90;;;5.13;;
2618;SDS011;1319;52.346;13.096;2023-07-13T05:08:36;6.50;;;5.10;;
2618;SDS011;1319;52.346;13.096;2023-07-13T05:11:03;7.03;;;5.03;;
2618;SDS011;1319;52.346;13.096;2023-07-13T05:13:28;9.53;;;5.27;;
2618;SDS011;1319;52.346;13.096;2023-07-13T05:15:57;6.13;;;5.23;;
2618;SDS011;1319;52.346;13.096;2023-07-13T05:18:23;9.37;;;5.00;;
2618;SDS011;1319;52.346;13.096;2023-07-13T05:20:56;7.60;;;4.63;;
2618;SDS011;1319;52.346;13.096;2023-07-13T05:23:21;7.87;;;4.67;;
2618;SDS011;1319;52.346;13.096;2023-07-13T05:25:46;10.53;;;4.50;;
2618;SDS011;1319;52.346;13.096;2023-07-13T05:28:11;5.53;;;4.10;;
2618;SDS011;1319;52.346;13.096;2023-07-13T05:30:36;6.37;;;4.43;;
2618;SDS011;1319;52.346;13.096;2023-07-13T05:33:02;11.07;;;4.30;;
2618;SDS011;1319;52.346;13.096;2023-07-13T05:35:27;5.30;;;4.10;;
2618;SDS011;1319;52.346;13.096;2023-07-13T05:37:52;5.17;;;4.20;;
2618;SDS011;1319;52.346;13.096;2023-07-13T05:40:17;6.70;;;4.07;;
2618;SDS011;1319;52.346;13.096;2023-07-13T05:42:42;6.07;;;3.80;;
2618;SDS011;1319;52.346;13.096;2023-07-13T05:45:08;4.83;;;3.70;;
2618;SDS011;1319;52.346;13.096;2023-07-13T05:47:33;6.50;;;3.80;;
2618;SDS011;1319;52.346;13.096;2023-07-13T05:49:58;3.83;;;3.27;;
2618;SDS011;1319;52.346;13.096;2023-07-13T05:52:23;5.10;;;3.50;;
2618;SDS011;1319;52.346;13.096;2023-07-13T05:54:48;5.77;;;3.17;;
2618;SDS011;1319;52.346;13.096;2023-07-13T05:57:14;4.03;;;3.33;;
2618;SDS011;1319;52.346;13.096;2023-07-13T05:59:39;9.03;;;3.20;;
2618;SDS011;1319;52.346;13.096;2023-07-13T06:02:05;4.83;;;2.80;;
2618;SDS011;1319;52.346;13.096;2023-07-13T06:04:30;5.97;;;2.90;;
2618;SDS011;1319;52.346;13.096;2023-07-13T06:06:55;4.10;;;2.63;;
2618;SDS011;1319;52.346;13.096;2023-07-13T06:09:20;7.50;;;3.57;;
2618;SDS011;1319;52.346;13.096;2023-07-13T06:11:46;2.97;;;2.47;;
2618;SDS011;1319;52.346;13.096;2023-07-13T06:14:11;4.83;;;2.63;;
2618;SDS011;1319;52.346;13.096;2023-07-13T06:16:36;5.73;;;2.80;;
2618;SDS011;1319;52.346;13.096;2023-07-13T06:19:02;3.47;;;2.87;;
2618;SDS011;1319;52.346;13.096;2023-07-13T06:21:27;6.03;;;2.80;;
2618;SDS011;1319;52.346;13.096;2023-07-13T06:23:52;3.80;;;2.60;;
2618;SDS011;1319;52.346;13.096;2023-07-13T06:26:18;4.70;;;2.60;;
2618;SDS011;1319;52.346;13.096;2023-07-13T06:28:44;4.70;;;2.87;;
2618;SDS011;1319;52.346;13.096;2023-07-13T06:31:10;3.93;;;2.63;;
2618;SDS011;1319;52.346;13.096;2023-07-13T06:33:35;2.50;;;2.37;;
2618;SDS011;1319;52.346;13.096;2023-07-13T06:36:02;5.43;;;2.60;;
2618;SDS011;1319;52.346;13.096;2023-07-13T06:38:28;5.37;;;2.70;;
2618;SDS011;1319;52.346;13.096;2023-07-13T06:40:53;4.83;;;2.60;;
2618;SDS011;1319;52.346;13.096;2023-07-13T06:43:19;4.53;;;2.63;;
2618;SDS011;1319;52.346;13.096;2023-07-13T06:45:45;3.93;;;2.30;;
2618;SDS011;1319;52.346;13.096;2023-07-13T06:48:12;5.80;;;2.30;;
2618;SDS011;1319;52.346;13.096;2023-07-13T06:50:37;3.40;;;2.57;;
2618;SDS011;1319;52.346;13.096;2023-07-13T06:53:02;8.70;;;2.83;;
2618;SDS011;1319;52.346;13.096;2023-07-13T06:55:28;7.87;;;2.73;;
2618;SDS011;1319;52.346;13.096;2023-07-13T06:57:53;3.23;;;2.40;;
2618;SDS011;1319;52.346;13.096;2023-07-13T07:00:18;5.70;;;2.90;;
2618;SDS011;1319;52.346;13.096;2023-07-13T07:02:44;3.60;;;2.37;;
2618;SDS011;1319;52.346;13.096;2023-07-13T07:05:09;5.50;;;2.20;;
2618;SDS011;1319;52.346;13.096;2023-07-13T07:07:34;4.90;;;2.50;;
2618;SDS011;1319;52.346;13.096;2023-07-13T07:09:59;5.10;;;2.57;;
2618;SDS011;1319;52.346;13.096;2023-07-13T07:12:24;2.40;;;2.20;;
2618;SDS011;1319;52.346;13.096;2023-07-13T07:14:50;3.17;;;2.30;;
2618;SDS011;1319;52.346;13.096;2023-07-13T07:17:15;5.37;;;2.27;;
2618;SDS011;1319;52.346;13.096;2023-07-13T07:19:40;2.97;;;1.80;;
2618;SDS011;1319;52.346;13.096;2023-07-13T07:22:06;6.50;;;2.07;;
2618;SDS011;1319;52.346;13.096;2023-07-13T07:24:31;3.50;;;2.20;;
2618;SDS011;1319;52.346;13.096;2023-07-13T07:26:57;3.97;;;1.77;;
2618;SDS011;1319;52.346;13.096;2023-07-13T07:29:22;5.00;;;1.97;;
2618;SDS011;1319;52.346;13.096;2023-07-13T07:31:47;4.17;;;1.80;;
2618;SDS011;1319;52.346;13.096;2023-07-13T07:34:14;6.73;;;2.20;;
2618;SDS011;1319;52.346;13.096;2023-07-13T07:36:39;6.00;;;2.10;;
2618;SDS011;1319;52.346;13.096;2023-07-13T07:39:04;4.53;;;2.17;;
2618;SDS011;1319;52.346;13.096;2023-07-13T07:41:30;3.17;;;2.00;;
2618;SDS011;1319;52.346;13.096;2023-07-13T07:43:55;2.10;;;1.90;;
2618;SDS011;1319;52.346;13.096;2023-07-13T07:46:20;6.13;;;2.10;;
2618;SDS011;1319;52.346;13.096;2023-07-13T07:48:45;3.78;;;1.90;;
2618;SDS011;1319;52.346;13.096;2023-07-13T07:51:10;7.13;;;2.13;;
2618;SDS011;1319;52.346;13.096;2023-07-13T07:53:36;3.37;;;2.00;;
2618;SDS011;1319;52.346;13.096;2023-07-13T07:56:01;4.22;;;2.10;;
2618;SDS011;1319;52.346;13.096;2023-07-13T07:58:26;2.35;;;2.00;;
2618;SDS011;1319;52.346;13.096;2023-07-13T08:00:51;6.00;;;1.80;;
2618;SDS011;1319;52.346;13.096;2023-07-13T08:03:16;3.53;;;2.00;;
2618;SDS011;1319;52.346;13.096;2023-07-13T08:05:41;2.63;;;2.03;;
2618;SDS011;1319;52.346;13.096;2023-07-13T08:08:07;2.88;;;1.98;;
2618;SDS011;1319;52.346;13.096;2023-07-13T08:10:34;2.55;;;2.00;;
2618;SDS011;1319;52.346;13.096;2023-07-13T08:13:00;6.43;;;1.92;;
2618;SDS011;1319;52.346;13.096;2023-07-13T08:15:25;5.60;;;2.10;;
2618;SDS011;1319;52.346;13.096;2023-07-13T08:17:50;3.47;;;2.00;;
2618;SDS011;1319;52.346;13.096;2023-07-13T08:20:15;5.43;;;2.42;;
2618;SDS011;1319;52.346;13.096;2023-07-13T08:22:41;4.50;;;2.10;;
2618;SDS011;1319;52.346;13.096;2023-07-13T08:25:06;3.35;;;1.90;;
2618;SDS011;1319;52.346;13.096;2023-07-13T08:27:32;4.10;;;2.10;;
2618;SDS011;1319;52.346;13.096;2023-07-13T08:29:57;3.35;;;1.77;;
2618;SDS011;1319;52.346;13.096;2023-07-13T08:32:23;5.20;;;1.95;;
2618;SDS011;1319;52.346;13.096;2023-07-13T08:34:48;2.15;;;1.90;;
2618;SDS011;1319;52.346;13.096;2023-07-13T08:37:14;2.08;;;1.90;;
2618;SDS011;1319;52.346;13.096;2023-07-13T08:39:39;4.38;;;2.20;;
2618;SDS011;1319;52.346;13.096;2023-07-13T08:42:07;2.88;;;2.00;;
2618;SDS011;1319;52.346;13.096;2023-07-13T08:47:07;3.42;;;2.10;;
2618;SDS011;1319;52.346;13.096;2023-07-13T08:49:33;3.00;;;1.92;;
2618;SDS011;1319;52.346;13.096;2023-07-13T08:52:01;3.30;;;1.88;;
2618;SDS011;1319;52.346;13.096;2023-07-13T08:56:52;2.85;;;1.83;;
2618;SDS011;1319;52.346;13.096;2023-07-13T08:59:19;3.35;;;2.10;;
2618;SDS011;1319;52.346;13.096;2023-07-13T09:02:04;4.28;;;1.80;;
2618;SDS011;1319;52.346;13.096;2023-07-13T09:04:35;2.67;;;1.88;;
2618;SDS011;1319;52.346;13.096;2023-07-13T09:12:09;3.47;;;2.25;;
2618;SDS011;1319;52.346;13.096;2023-07-13T09:14:43;4.45;;;2.40;;
2618;SDS011;1319;52.346;13.096;2023-07-13T09:17:11;6.93;;;2.40;;
2618;SDS011;1319;52.346;13.096;2023-07-13T09:19:37;4.63;;;2.63;;
2618;SDS011;1319;52.346;13.096;2023-07-13T09:22:03;5.03;;;2.60;;
2618;SDS011;1319;52.346;13.096;2023-07-13T09:24:35;5.90;;;2.70;;
2618;SDS011;1319;52.346;13.096;2023-07-13T09:27:01;3.63;;;2.80;;
2618;SDS011;1319;52.346;13.096;2023-07-13T09:29:30;6.32;;;2.72;;
2618;SDS011;1319;52.346;13.096;2023-07-13T09:31:58;4.28;;;2.80;;
2618;SDS011;1319;52.346;13.096;2023-07-13T09:34:25;6.53;;;3.17;;
2618;SDS011;1319;52.346;13.096;2023-07-13T09:36:50;5.72;;;2.88;;
2618;SDS011;1319;52.346;13.096;2023-07-13T09:44:34;5.50;;;2.42;;
2618;SDS011;1319;52.346;13.096;2023-07-13T09:47:00;9.65;;;2.45;;
2618;SDS011;1319;52.346;13.096;2023-07-13T09:49:27;3.20;;;2.72;;
2618;SDS011;1319;52.346;13.096;2023-07-13T09:51:57;4.68;;;2.78;;
2618;SDS011;1319;52.346;13.096;2023-07-13T09:54:24;6.35;;;2.67;;
2618;SDS011;1319;52.346;13.096;2023-07-13T09:56:53;6.35;;;2.60;;
2618;SDS011;1319;52.346;13.096;2023-07-13T09:59:23;3.35;;;2.63;;
2618;SDS011;1319;52.346;13.096;2023-07-13T10:01:49;3.45;;;2.50;;
2618;SDS011;1319;52.346;13.096;2023-07-13T10:04:16;4.93;;;2.60;;
2618;SDS011;1319;52.346;13.096;2023-07-13T10:06:43;6.35;;;2.90;;
2618;SDS011;1319;52.346;13.096;2023-07-13T10:09:09;4.18;;;3.10;;
2618;SDS011;1319;52.346;13.096;2023-07-13T10:11:35;3.28;;;2.65;;
2618;SDS011;1319;52.346;13.096;2023-07-13T10:14:12;6.20;;;3.10;;
2618;SDS011;1319;52.346;13.096;2023-07-13T10:16:37;3.72;;;2.47;;
2618;SDS011;1319;52.346;13.096;2023-07-13T10:19:09;3.50;;;2.45;;
2618;SDS011;1319;52.346;13.096;2023-07-13T10:21:37;3.85;;;2.80;;
2618;SDS011;1319;52.346;13.096;2023-07-13T10:24:06;7.15;;;2.92;;
2618;SDS011;1319;52.346;13.096;2023-07-13T10:26:45;6.03;;;2.92;;
2618;SDS011;1319;52.346;13.096;2023-07-13T10:29:11;4.75;;;2.50;;
2618;SDS011;1319;52.346;13.096;2023-07-13T10:31:39;7.50;;;2.85;;
2618;SDS011;1319;52.346;13.096;2023-07-13T10:34:04;4.38;;;2.83;;
2618;SDS011;1319;52.346;13.096;2023-07-13T10:36:48;3.63;;;2.50;;
2618;SDS011;1319;52.346;13.096;2023-07-13T10:39:18;5.13;;;2.65;;
2618;SDS011;1319;52.346;13.096;2023-07-13T10:41:44;5.18;;;2.70;;
2618;SDS011;1319;52.346;13.096;2023-07-13T10:44:22;4.68;;;2.90;;
2618;SDS011;1319;52.346;13.096;2023-07-13T10:46:51;4.15;;;2.88;;
2618;SDS011;1319;52.346;13.096;2023-07-13T10:49:16;3.88;;;2.72;;
2618;SDS011;1319;52.346;13.096;2023-07-13T10:51:42;4.13;;;2.60;;
2618;SDS011;1319;52.346;13.096;2023-07-13T10:54:12;5.30;;;2.78;;
2618;SDS011;1319;52.346;13.096;2023-07-13T10:56:40;2.63;;;2.20;;
2618;SDS011;1319;52.346;13.096;2023-07-13T11:04:26;5.20;;;2.38;;
2618;SDS011;1319;52.346;13.096;2023-07-13T11:06:53;9.20;;;2.38;;
2618;SDS011;1319;52.346;13.096;2023-07-13T11:19:50;4.38;;;2.58;;
2618;SDS011;1319;52.346;13.096;2023-07-13T11:22:16;3.05;;;2.30;;
2618;SDS011;1319;52.346;13.096;2023-07-13T11:29:51;6.10;;;2.25;;
2618;SDS011;1319;52.346;13.096;2023-07-13T11:32:29;3.90;;;2.20;;
2618;SDS011;1319;52.346;13.096;2023-07-13T11:34:55;3.50;;;1.98;;
2618;SDS011;1319;52.346;13.096;2023-07-13T11:37:20;1.85;;;1.70;;
2618;SDS011;1319;52.346;13.096;2023-07-13T11:39:47;3.45;;;2.13;;
2618;SDS011;1319;52.346;13.096;2023-07-13T11:42:14;5.32;;;1.80;;
2618;SDS011;1319;52.346;13.096;2023-07-13T11:44:46;7.90;;;1.85;;
2618;SDS011;1319;52.346;13.096;2023-07-13T11:47:14;4.70;;;2.15;;
2618;SDS011;1319;52.346;13.096;2023-07-13T11:49:43;2.50;;;1.83;;
2618;SDS011;1319;52.346;13.096;2023-07-13T11:52:12;9.98;;;1.70;;
2618;SDS011;1319;52.346;13.096;2023-07-13T11:54:54;5.25;;;1.98;;
2618;SDS011;1319;52.346;13.096;2023-07-13T11:57:26;3.88;;;1.83;;
2618;SDS011;1319;52.346;13.096;2023-07-13T11:59:53;3.78;;;2.00;;
2618;SDS011;1319;52.346;13.096;2023-07-13T12:02:37;4.75;;;2.08;;
2618;SDS011;1319;52.346;13.096;2023-07-13T12:05:04;2.78;;;1.80;;
2618;SDS011;1319;52.346;13.096;2023-07-13T12:07:33;3.10;;;1.73;;
2618;SDS011;1319;52.346;13.096;2023-07-13T12:10:13;4.07;;;1.85;;
2618;SDS011;1319;52.346;13.096;2023-07-13T12:12:46;3.10;;;1.70;;
2618;SDS011;1319;52.346;13.096;2023-07-13T12:15:12;3.72;;;1.52;;
2618;SDS011;1319;52.346;13.096;2023-07-13T12:17:37;3.08;;;1.60;;
2618;SDS011;1319;52.346;13.096;2023-07-13T12:20:04;4.65;;;1.65;;
2618;SDS011;1319;52.346;13.096;2023-07-13T12:22:36;3.67;;;1.80;;
2618;SDS011;1319;52.346;13.096;2023-07-13T12:25:02;2.67;;;1.85;;
2618;SDS011;1319;52.346;13.096;2023-07-13T12:27:27;4.10;;;1.63;;
2618;SDS011;1319;52.346;13.096;2023-07-13T12:30:04;4.90;;;1.75;;
2618;SDS011;1319;52.346;13.096;2023-07-13T12:32:30;1.75;;;1.50;;
2618;SDS011;1319;52.346;13.096;2023-07-13T12:34:57;2.28;;;1.63;;
2618;SDS011;1319;52.346;13.096;2023-07-13T12:37:23;2.22;;;1.60;;
2618;SDS011;1319;52.346;13.096;2023-07-13T12:39:48;3.25;;;1.65;;
2618;SDS011;1319;52.346;13.096;2023-07-13T12:44:52;4.90;;;1.55;;
2618;SDS011;1319;52.346;13.096;2023-07-13T12:47:19;4.25;;;1.58;;
2618;SDS011;1319;52.346;13.096;2023-07-13T12:49:53;3.00;;;1.50;;
2618;SDS011;1319;52.346;13.096;2023-07-13T12:52:24;2.67;;;1.50;;
2618;SDS011;1319;52.346;13.096;2023-07-13T12:54:57;2.45;;;1.55;;
2618;SDS011;1319;52.346;13.096;2023-07-13T12:57:23;2.75;;;1.50;;
2618;SDS011;1319;52.346;13.096;2023-07-13T12:59:51;5.45;;;1.83;;
2618;SDS011;1319;52.346;13.096;2023-07-13T13:02:28;2.40;;;1.50;;
2618;SDS011;1319;52.346;13.096;2023-07-13T13:04:55;4.35;;;1.60;;
2618;SDS011;1319;52.346;13.096;2023-07-13T13:07:21;2.25;;;1.27;;
2618;SDS011;1319;52.346;13.096;2023-07-13T13:09:46;3.05;;;1.30;;
2618;SDS011;1319;52.346;13.096;2023-07-13T13:12:12;2.25;;;1.33;;
2618;SDS011;1319;52.346;13.096;2023-07-13T13:14:37;3.42;;;1.30;;
2618;SDS011;1319;52.346;13.096;2023-07-13T13:17:04;3.60;;;1.40;;
2618;SDS011;1319;52.346;13.096;2023-07-13T13:19:36;3.33;;;1.40;;
2618;SDS011;1319;52.346;13.096;2023-07-13T13:22:01;3.20;;;1.30;;
2618;SDS011;1319;52.346;13.096;2023-07-13T13:24:27;3.53;;;1.40;;
2618;SDS011;1319;52.346;13.096;2023-07-13T13:26:53;3.83;;;1.45;;
2618;SDS011;1319;52.346;13.096;2023-07-13T13:29:20;2.78;;;1.10;;
2618;SDS011;1319;52.346;13.096;2023-07-13T13:31:46;2.45;;;1.15;;
2618;SDS011;1319;52.346;13.096;2023-07-13T13:34:11;1.48;;;1.38;;
2618;SDS011;1319;52.346;13.096;2023-07-13T13:36:37;1.25;;;1.13;;
2618;SDS011;1319;52.346;13.096;2023-07-13T13:39:02;2.58;;;1.20;;
2618;SDS011;1319;52.346;13.096;2023-07-13T13:41:29;2.60;;;1.63;;
2618;SDS011;1319;52.346;13.096;2023-07-13T13:43:56;1.63;;;1.45;;
2618;SDS011;1319;52.346;13.096;2023-07-13T13:46:22;1.45;;;1.30;;
2618;SDS011;1319;52.346;13.096;2023-07-13T13:48:50;1.88;;;1.33;;
2618;SDS011;1319;52.346;13.096;2023-07-13T13:51:16;3.28;;;1.30;;
2618;SDS011;1319;52.346;13.096;2023-07-13T13:53:43;6.78;;;1.67;;
2618;SDS011;1319;52.346;13.096;2023-07-13T13:56:08;2.67;;;1.40;;
2618;SDS011;1319;52.346;13.096;2023-07-13T13:58:33;1.73;;;1.23;;
2618;SDS011;1319;52.346;13.096;2023-07-13T14:00:59;1.58;;;1.10;;
2618;SDS011;1319;52.346;13.096;2023-07-13T14:03:24;4.45;;;1.23;;
2618;SDS011;1319;52.346;13.096;2023-07-13T14:05:50;4.30;;;1.40;;
2618;SDS011;1319;52.346;13.096;2023-07-13T14:08:16;3.38;;;1.30;;
2618;SDS011;1319;52.346;13.096;2023-07-13T14:10:43;4.75;;;1.48;;
2618;SDS011;1319;52.346;13.096;2023-07-13T14:13:15;2.22;;;1.40;;
2618;SDS011;1319;52.346;13.096;2023-07-13T14:15:42;1.63;;;1.40;;
2618;SDS011;1319;52.346;13.096;2023-07-13T14:18:08;2.28;;;1.45;;
2618;SDS011;1319;52.346;13.096;2023-07-13T14:20:33;1.45;;;1.20;;
2618;SDS011;1319;52.346;13.096;2023-07-13T14:22:59;3.70;;;1.20;;
2618;SDS011;1319;52.346;13.096;2023-07-13T14:25:24;2.15;;;1.23;;
2618;SDS011;1319;52.346;13.096;2023-07-13T14:27:51;4.28;;;1.20;;
2618;SDS011;1319;52.346;13.096;2023-07-13T14:30:19;3.60;;;1.10;;
2618;SDS011;1319;52.346;13.096;2023-07-13T14:32:45;2.40;;;1.08;;
2618;SDS011;1319;52.346;13.096;2023-07-13T14:35:11;5.55;;;1.30;;
2618;SDS011;1319;52.346;13.096;2023-07-13T14:37:37;4.68;;;1.40;;
2618;SDS011;1319;52.346;13.096;2023-07-13T14:40:04;5.38;;;1.02;;
2618;SDS011;1319;52.346;13.096;2023-07-13T14:42:30;3.15;;;0.98;;
2618;SDS011;1319;52.346;13.096;2023-07-13T14:44:55;1.65;;;0.98;;
2618;SDS011;1319;52.346;13.096;2023-07-13T14:47:20;2.38;;;0.95;;
2618;SDS011;1319;52.346;13.096;2023-07-13T14:49:45;1.13;;;1.00;;
2618;SDS011;1319;52.346;13.096;2023-07-13T14:52:17;5.53;;;0.85;;
2618;SDS011;1319;52.346;13.096;2023-07-13T14:54:42;5.38;;;1.20;;
2618;SDS011;1319;52.346;13.096;2023-07-13T14:57:09;3.22;;;1.10;;
2618;SDS011;1319;52.346;13.096;2023-07-13T14:59:34;3.83;;;1.20;;
2618;SDS011;1319;52.346;13.096;2023-07-13T15:02:00;1.00;;;1.00;;
2618;SDS011;1319;52.346;13.096;2023-07-13T15:04:26;6.95;;;1.10;;
2618;SDS011;1319;52.346;13.096;2023-07-13T15:07:01;2.35;;;1.15;;
2618;SDS011;1319;52.346;13.096;2023-07-13T15:09:27;2.38;;;1.20;;
2618;SDS011;1319;52.346;13.096;2023-07-13T15:11:57;2.33;;;1.20;;
2618;SDS011;1319;52.346;13.096;2023-07-13T15:14:22;5.95;;;1.38;;
2618;SDS011;1319;52.346;13.096;2023-07-13T15:16:50;1.23;;;1.00;;
2618;SDS011;1319;52.346;13.096;2023-07-13T15:19:17;1.70;;;1.00;;
2618;SDS011;1319;52.346;13.096;2023-07-13T15:21:43;5.57;;;1.33;;
2618;SDS011;1319;52.346;13.096;2023-07-13T15:24:09;2.38;;;1.35;;
2618;SDS011;1319;52.346;13.096;2023-07-13T15:26:35;3.00;;;1.20;;
2618;SDS011;1319;52.346;13.096;2023-07-13T15:29:00;1.77;;;1.15;;
2618;SDS011;1319;52.346;13.096;2023-07-13T15:31:26;2.42;;;1.17;;
2618;SDS011;1319;52.346;13.096;2023-07-13T15:33:53;1.40;;;1.30;;
2618;SDS011;1319;52.346;13.096;2023-07-13T15:36:20;4.07;;;1.40;;
2618;SDS011;1319;52.346;13.096;2023-07-13T15:38:46;4.43;;;1.20;;
2618;SDS011;1319;52.346;13.096;2023-07-13T15:41:19;1.40;;;1.30;;